sensor_id;sensor_type;location;lat;lon;timestamp;P1;durP1;ratioP1;P2;durP2;ratioP2
37855;SDS011;23694;43.274;26.924;2023-12-20T00:00:42;22.40;;;13.33;;
37855;SDS011;23694;43.274;26.924;2023-12-20T00:03:10;26.07;;;16.57;;
37855;SDS011;23694;43.274;26.924;2023-12-20T00:05:40;25.67;;;15.87;;
37855;SDS011;23694;43.274;26.924;2023-12-20T00:10:44;23.90;;;15.00;;
37855;SDS011;23694;43.274;26.924;2023-12-20T00:13:20;22.60;;;14.40;;
37855;SDS011;23694;43.274;26.924;2023-12-20T00:15:48;20.93;;;13.93;;
37855;SDS011;23694;43.274;26.924;2023-12-20T00:18:27;25.90;;;15.50;;
37855;SDS011;23694;43.274;26.924;2023-12-20T00:20:59;22.33;;;13.67;;
37855;SDS011;23694;43.274;26.924;2023-12-20T00:23:52;22.80;;;12.80;;
37855;SDS011;23694;43.274;26.924;2023-12-20T00:26:21;18.93;;;13.07;;
37855;SDS011;23694;43.274;26.924;2023-12-20T00:29:03;23.50;;;13.87;;
37855;SDS011;23694;43.274;26.924;2023-12-20T00:31:34;20.90;;;13.33;;
37855;SDS011;23694;43.274;26.924;2023-12-20T00:34:02;25.30;;;13.93;;
37855;SDS011;23694;43.274;26.924;2023-12-20T00:36:30;21.50;;;12.57;;
37855;SDS011;23694;43.274;26.924;2023-12-20T00:39:03;20.90;;;13.70;;
37855;SDS011;23694;43.274;26.924;2023-12-20T00:41:32;20.37;;;13.37;;
37855;SDS011;23694;43.274;26.924;2023-12-20T00:44:14;21.43;;;12.27;;
37855;SDS011;23694;43.274;26.924;2023-12-20T00:46:43;21.90;;;12.97;;
37855;SDS011;23694;43.274;26.924;2023-12-20T00:49:09;20.30;;;12.70;;
37855;SDS011;23694;43.274;26.924;2023-12-20T00:51:44;19.20;;;12.00;;
37855;SDS011;23694;43.274;26.924;2023-12-20T00:54:22;19.47;;;12.43;;
37855;SDS011;23694;43.274;26.924;2023-12-20T00:56:51;19.03;;;12.53;;
37855;SDS011;23694;43.274;26.924;2023-12-20T01:01:44;18.20;;;11.90;;
37855;SDS011;23694;43.274;26.924;2023-12-20T01:04:22;20.73;;;13.43;;
37855;SDS011;23694;43.274;26.924;2023-12-20T01:06:55;19.23;;;12.23;;
37855;SDS011;23694;43.274;26.924;2023-12-20T01:09:25;20.80;;;14.00;;
37855;SDS011;23694;43.274;26.924;2023-12-20T01:12:14;21.17;;;12.07;;
37855;SDS011;23694;43.274;26.924;2023-12-20T01:14:59;23.57;;;14.20;;
37855;SDS011;23694;43.274;26.924;2023-12-20T01:17:29;23.30;;;14.77;;
37855;SDS011;23694;43.274;26.924;2023-12-20T01:19:57;24.35;;;16.20;;
37855;SDS011;23694;43.274;26.924;2023-12-20T01:22:25;25.63;;;16.17;;
37855;SDS011;23694;43.274;26.924;2023-12-20T01:25:28;28.80;;;16.97;;
37855;SDS011;23694;43.274;26.924;2023-12-20T01:28:07;28.30;;;18.00;;
37855;SDS011;23694;43.274;26.924;2023-12-20T01:31:08;30.20;;;18.07;;
37855;SDS011;23694;43.274;26.924;2023-12-20T01:33:37;33.97;;;20.00;;
37855;SDS011;23694;43.274;26.924;2023-12-20T01:36:03;34.67;;;22.27;;
37855;SDS011;23694;43.274;26.924;2023-12-20T01:38:43;33.27;;;21.73;;
37855;SDS011;23694;43.274;26.924;2023-12-20T01:41:15;40.63;;;23.87;;
37855;SDS011;23694;43.274;26.924;2023-12-20T01:43:53;34.63;;;21.23;;
37855;SDS011;23694;43.274;26.924;2023-12-20T01:46:24;33.40;;;20.37;;
37855;SDS011;23694;43.274;26.924;2023-12-20T01:49:16;28.70;;;18.35;;
37855;SDS011;23694;43.274;26.924;2023-12-20T01:51:57;29.57;;;18.53;;
37855;SDS011;23694;43.274;26.924;2023-12-20T01:54:51;35.43;;;21.07;;
37855;SDS011;23694;43.274;26.924;2023-12-20T01:57:41;38.20;;;20.53;;
37855;SDS011;23694;43.274;26.924;2023-12-20T02:00:08;32.30;;;19.70;;
37855;SDS011;23694;43.274;26.924;2023-12-20T02:02:42;37.80;;;21.20;;
37855;SDS011;23694;43.274;26.924;2023-12-20T02:07:41;35.83;;;20.23;;
37855;SDS011;23694;43.274;26.924;2023-12-20T02:10:14;32.33;;;19.85;;
37855;SDS011;23694;43.274;26.924;2023-12-20T02:12:47;32.00;;;19.97;;
37855;SDS011;23694;43.274;26.924;2023-12-20T02:15:21;39.37;;;22.10;;
37855;SDS011;23694;43.274;26.924;2023-12-20T02:17:50;37.83;;;21.77;;
37855;SDS011;23694;43.274;26.924;2023-12-20T02:20:28;40.50;;;24.77;;
37855;SDS011;23694;43.274;26.924;2023-12-20T02:22:57;48.40;;;26.77;;
37855;SDS011;23694;43.274;26.924;2023-12-20T02:25:30;41.70;;;24.63;;
37855;SDS011;23694;43.274;26.924;2023-12-20T02:28:03;36.20;;;23.27;;
37855;SDS011;23694;43.274;26.924;2023-12-20T02:30:34;39.33;;;22.73;;
37855;SDS011;23694;43.274;26.924;2023-12-20T02:33:03;33.77;;;21.80;;
37855;SDS011;23694;43.274;26.924;2023-12-20T02:35:45;37.83;;;23.37;;
37855;SDS011;23694;43.274;26.924;2023-12-20T02:38:18;31.57;;;20.57;;
37855;SDS011;23694;43.274;26.924;2023-12-20T02:40:59;28.67;;;20.20;;
37855;SDS011;23694;43.274;26.924;2023-12-20T02:43:31;29.80;;;20.58;;
37855;SDS011;23694;43.274;26.924;2023-12-20T02:46:01;37.73;;;23.40;;
37855;SDS011;23694;43.274;26.924;2023-12-20T02:48:28;33.10;;;20.70;;
37855;SDS011;23694;43.274;26.924;2023-12-20T02:51:01;35.23;;;21.70;;
37855;SDS011;23694;43.274;26.924;2023-12-20T02:53:42;33.63;;;20.87;;
37855;SDS011;23694;43.274;26.924;2023-12-20T02:56:21;33.63;;;20.80;;
37855;SDS011;23694;43.274;26.924;2023-12-20T02:58:47;34.17;;;21.30;;
37855;SDS011;23694;43.274;26.924;2023-12-20T03:01:26;31.00;;;19.37;;
37855;SDS011;23694;43.274;26.924;2023-12-20T03:03:53;34.23;;;19.57;;
37855;SDS011;23694;43.274;26.924;2023-12-20T03:06:21;29.17;;;19.63;;
37855;SDS011;23694;43.274;26.924;2023-12-20T03:09:28;27.92;;;18.27;;
37855;SDS011;23694;43.274;26.924;2023-12-20T03:17:38;30.53;;;19.73;;
37855;SDS011;23694;43.274;26.924;2023-12-20T03:20:13;31.87;;;19.53;;
37855;SDS011;23694;43.274;26.924;2023-12-20T03:22:53;33.80;;;19.93;;
37855;SDS011;23694;43.274;26.924;2023-12-20T03:25:37;33.85;;;20.58;;
37855;SDS011;23694;43.274;26.924;2023-12-20T03:30:54;39.17;;;22.00;;
37855;SDS011;23694;43.274;26.924;2023-12-20T03:33:22;38.60;;;22.60;;
37855;SDS011;23694;43.274;26.924;2023-12-20T03:35:50;32.37;;;21.00;;
37855;SDS011;23694;43.274;26.924;2023-12-20T03:38:36;33.60;;;21.47;;
37855;SDS011;23694;43.274;26.924;2023-12-20T03:43:49;31.77;;;20.53;;
37855;SDS011;23694;43.274;26.924;2023-12-20T03:46:48;31.17;;;19.40;;
37855;SDS011;23694;43.274;26.924;2023-12-20T03:49:35;31.83;;;20.07;;
37855;SDS011;23694;43.274;26.924;2023-12-20T03:52:09;32.77;;;18.30;;
37855;SDS011;23694;43.274;26.924;2023-12-20T03:54:46;29.13;;;18.20;;
37855;SDS011;23694;43.274;26.924;2023-12-20T03:57:14;34.23;;;19.97;;
37855;SDS011;23694;43.274;26.924;2023-12-20T03:59:44;33.03;;;19.83;;
37855;SDS011;23694;43.274;26.924;2023-12-20T04:02:25;36.30;;;21.13;;
37855;SDS011;23694;43.274;26.924;2023-12-20T04:05:05;36.37;;;21.00;;
37855;SDS011;23694;43.274;26.924;2023-12-20T04:07:44;34.93;;;21.17;;
37855;SDS011;23694;43.274;26.924;2023-12-20T04:10:17;42.40;;;26.45;;
37855;SDS011;23694;43.274;26.924;2023-12-20T04:13:16;43.97;;;28.40;;
37855;SDS011;23694;43.274;26.924;2023-12-20T04:15:47;65.03;;;38.57;;
37855;SDS011;23694;43.274;26.924;2023-12-20T04:18:30;58.17;;;34.20;;
37855;SDS011;23694;43.274;26.924;2023-12-20T04:21:08;54.07;;;32.60;;
37855;SDS011;23694;43.274;26.924;2023-12-20T04:24:00;43.13;;;27.98;;
37855;SDS011;23694;43.274;26.924;2023-12-20T04:26:41;50.83;;;30.90;;
37855;SDS011;23694;43.274;26.924;2023-12-20T04:29:14;45.43;;;28.47;;
37855;SDS011;23694;43.274;26.924;2023-12-20T04:31:42;54.93;;;36.63;;
37855;SDS011;23694;43.274;26.924;2023-12-20T04:34:43;41.60;;;26.80;;
37855;SDS011;23694;43.274;26.924;2023-12-20T04:37:12;42.87;;;29.13;;
37855;SDS011;23694;43.274;26.924;2023-12-20T04:39:44;45.00;;;28.90;;
37855;SDS011;23694;43.274;26.924;2023-12-20T04:42:12;42.43;;;27.60;;
37855;SDS011;23694;43.274;26.924;2023-12-20T04:44:52;43.27;;;27.67;;
37855;SDS011;23694;43.274;26.924;2023-12-20T04:47:25;44.00;;;29.03;;
37855;SDS011;23694;43.274;26.924;2023-12-20T04:49:54;45.70;;;29.53;;
37855;SDS011;23694;43.274;26.924;2023-12-20T04:52:45;48.37;;;32.43;;
37855;SDS011;23694;43.274;26.924;2023-12-20T04:55:13;49.80;;;32.37;;
37855;SDS011;23694;43.274;26.924;2023-12-20T04:57:58;46.47;;;30.67;;
37855;SDS011;23694;43.274;26.924;2023-12-20T05:00:50;52.30;;;33.30;;
37855;SDS011;23694;43.274;26.924;2023-12-20T05:03:23;50.03;;;34.03;;
37855;SDS011;23694;43.274;26.924;2023-12-20T05:05:52;48.77;;;32.87;;
37855;SDS011;23694;43.274;26.924;2023-12-20T05:08:29;49.93;;;33.70;;
37855;SDS011;23694;43.274;26.924;2023-12-20T05:11:16;52.30;;;35.17;;
37855;SDS011;23694;43.274;26.924;2023-12-20T05:13:46;52.83;;;35.90;;
37855;SDS011;23694;43.274;26.924;2023-12-20T05:16:37;53.47;;;36.13;;
37855;SDS011;23694;43.274;26.924;2023-12-20T05:19:05;72.33;;;42.83;;
37855;SDS011;23694;43.274;26.924;2023-12-20T05:22:06;70.00;;;45.80;;
37855;SDS011;23694;43.274;26.924;2023-12-20T05:24:37;59.63;;;41.53;;
37855;SDS011;23694;43.274;26.924;2023-12-20T05:27:16;60.60;;;39.20;;
37855;SDS011;23694;43.274;26.924;2023-12-20T05:29:57;60.97;;;38.77;;
37855;SDS011;23694;43.274;26.924;2023-12-20T05:32:58;64.07;;;40.80;;
37855;SDS011;23694;43.274;26.924;2023-12-20T05:35:29;67.87;;;44.47;;
37855;SDS011;23694;43.274;26.924;2023-12-20T05:38:18;72.17;;;43.30;;
37855;SDS011;23694;43.274;26.924;2023-12-20T05:40:48;76.25;;;49.40;;
37855;SDS011;23694;43.274;26.924;2023-12-20T05:43:25;72.90;;;44.20;;
37855;SDS011;23694;43.274;26.924;2023-12-20T05:45:53;76.53;;;46.53;;
37855;SDS011;23694;43.274;26.924;2023-12-20T05:48:27;76.60;;;47.27;;
37855;SDS011;23694;43.274;26.924;2023-12-20T05:50:53;86.13;;;49.00;;
37855;SDS011;23694;43.274;26.924;2023-12-20T05:53:32;77.93;;;46.03;;
37855;SDS011;23694;43.274;26.924;2023-12-20T05:56:09;77.17;;;45.07;;
37855;SDS011;23694;43.274;26.924;2023-12-20T05:58:53;75.67;;;45.47;;
37855;SDS011;23694;43.274;26.924;2023-12-20T06:01:45;70.70;;;44.20;;
37855;SDS011;23694;43.274;26.924;2023-12-20T06:04:34;70.77;;;41.60;;
37855;SDS011;23694;43.274;26.924;2023-12-20T06:07:07;64.20;;;40.43;;
37855;SDS011;23694;43.274;26.924;2023-12-20T06:09:59;68.57;;;39.63;;
37855;SDS011;23694;43.274;26.924;2023-12-20T06:12:38;59.97;;;37.10;;
37855;SDS011;23694;43.274;26.924;2023-12-20T06:15:26;62.57;;;37.93;;
37855;SDS011;23694;43.274;26.924;2023-12-20T06:17:55;66.40;;;39.93;;
37855;SDS011;23694;43.274;26.924;2023-12-20T06:20:24;71.07;;;41.97;;
37855;SDS011;23694;43.274;26.924;2023-12-20T06:23:04;74.13;;;43.30;;
37855;SDS011;23694;43.274;26.924;2023-12-20T06:25:53;78.37;;;49.50;;
37855;SDS011;23694;43.274;26.924;2023-12-20T06:28:21;83.30;;;51.43;;
37855;SDS011;23694;43.274;26.924;2023-12-20T06:31:06;98.20;;;56.13;;
37855;SDS011;23694;43.274;26.924;2023-12-20T06:33:34;97.67;;;62.13;;
37855;SDS011;23694;43.274;26.924;2023-12-20T06:36:12;95.10;;;59.93;;
37855;SDS011;23694;43.274;26.924;2023-12-20T06:38:47;86.67;;;54.80;;
37855;SDS011;23694;43.274;26.924;2023-12-20T06:41:17;89.93;;;52.33;;
37855;SDS011;23694;43.274;26.924;2023-12-20T06:44:10;99.13;;;62.97;;
37855;SDS011;23694;43.274;26.924;2023-12-20T06:46:39;110.33;;;71.00;;
37855;SDS011;23694;43.274;26.924;2023-12-20T06:49:09;120.90;;;76.18;;
37855;SDS011;23694;43.274;26.924;2023-12-20T06:52:05;106.23;;;65.60;;
37855;SDS011;23694;43.274;26.924;2023-12-20T06:54:51;109.60;;;71.70;;
37855;SDS011;23694;43.274;26.924;2023-12-20T06:57:30;95.60;;;61.07;;
37855;SDS011;23694;43.274;26.924;2023-12-20T06:59:57;71.87;;;48.23;;
37855;SDS011;23694;43.274;26.924;2023-12-20T07:02:28;68.85;;;48.13;;
37855;SDS011;23694;43.274;26.924;2023-12-20T07:05:10;55.63;;;35.90;;
37855;SDS011;23694;43.274;26.924;2023-12-20T07:08:01;46.37;;;32.80;;
37855;SDS011;23694;43.274;26.924;2023-12-20T07:10:32;44.17;;;31.50;;
37855;SDS011;23694;43.274;26.924;2023-12-20T07:15:56;30.30;;;20.50;;
37855;SDS011;23694;43.274;26.924;2023-12-20T07:18:36;32.60;;;21.77;;
37855;SDS011;23694;43.274;26.924;2023-12-20T07:21:04;30.17;;;20.07;;
37855;SDS011;23694;43.274;26.924;2023-12-20T07:23:33;35.73;;;19.50;;
37855;SDS011;23694;43.274;26.924;2023-12-20T07:26:07;28.33;;;18.20;;
37855;SDS011;23694;43.274;26.924;2023-12-20T07:28:49;24.85;;;17.63;;
37855;SDS011;23694;43.274;26.924;2023-12-20T07:31:15;33.47;;;19.50;;
37855;SDS011;23694;43.274;26.924;2023-12-20T07:33:52;36.92;;;22.75;;
37855;SDS011;23694;43.274;26.924;2023-12-20T07:36:39;31.58;;;20.30;;
37855;SDS011;23694;43.274;26.924;2023-12-20T07:39:05;29.23;;;19.08;;
37855;SDS011;23694;43.274;26.924;2023-12-20T07:41:36;33.97;;;21.77;;
37855;SDS011;23694;43.274;26.924;2023-12-20T07:44:38;30.38;;;19.23;;
37855;SDS011;23694;43.274;26.924;2023-12-20T07:47:16;23.70;;;15.73;;
37855;SDS011;23694;43.274;26.924;2023-12-20T07:49:51;27.15;;;17.17;;
37855;SDS011;23694;43.274;26.924;2023-12-20T07:52:44;24.20;;;15.73;;
37855;SDS011;23694;43.274;26.924;2023-12-20T07:55:13;21.20;;;13.67;;
37855;SDS011;23694;43.274;26.924;2023-12-20T07:57:43;20.63;;;12.53;;
37855;SDS011;23694;43.274;26.924;2023-12-20T08:00:25;23.07;;;12.60;;
37855;SDS011;23694;43.274;26.924;2023-12-20T08:03:02;20.83;;;13.30;;
37855;SDS011;23694;43.274;26.924;2023-12-20T08:05:29;23.10;;;12.47;;
37855;SDS011;23694;43.274;26.924;2023-12-20T08:08:11;18.53;;;11.33;;
37855;SDS011;23694;43.274;26.924;2023-12-20T08:10:42;21.90;;;10.73;;
37855;SDS011;23694;43.274;26.924;2023-12-20T08:13:09;16.70;;;9.70;;
37855;SDS011;23694;43.274;26.924;2023-12-20T08:15:47;14.97;;;10.23;;
37855;SDS011;23694;43.274;26.924;2023-12-20T08:20:48;15.23;;;10.33;;
37855;SDS011;23694;43.274;26.924;2023-12-20T08:23:28;17.30;;;10.67;;
37855;SDS011;23694;43.274;26.924;2023-12-20T08:25:56;17.47;;;10.20;;
37855;SDS011;23694;43.274;26.924;2023-12-20T08:28:33;19.23;;;11.03;;
37855;SDS011;23694;43.274;26.924;2023-12-20T08:31:04;15.43;;;10.23;;
37855;SDS011;23694;43.274;26.924;2023-12-20T08:33:45;24.40;;;12.30;;
37855;SDS011;23694;43.274;26.924;2023-12-20T08:36:25;23.53;;;13.10;;
37855;SDS011;23694;43.274;26.924;2023-12-20T08:39:04;21.47;;;11.97;;
37855;SDS011;23694;43.274;26.924;2023-12-20T08:41:45;25.77;;;12.10;;
37855;SDS011;23694;43.274;26.924;2023-12-20T08:44:15;17.00;;;10.80;;
37855;SDS011;23694;43.274;26.924;2023-12-20T08:46:52;19.70;;;10.03;;
37855;SDS011;23694;43.274;26.924;2023-12-20T08:49:22;19.70;;;11.00;;
37855;SDS011;23694;43.274;26.924;2023-12-20T08:51:54;20.73;;;11.50;;
37855;SDS011;23694;43.274;26.924;2023-12-20T08:54:25;19.63;;;12.13;;
37855;SDS011;23694;43.274;26.924;2023-12-20T08:57:16;19.30;;;10.37;;
37855;SDS011;23694;43.274;26.924;2023-12-20T08:59:50;20.60;;;11.43;;
37855;SDS011;23694;43.274;26.924;2023-12-20T09:02:20;18.70;;;10.30;;
37855;SDS011;23694;43.274;26.924;2023-12-20T09:04:48;18.47;;;10.90;;
37855;SDS011;23694;43.274;26.924;2023-12-20T09:07:39;16.37;;;11.27;;
37855;SDS011;23694;43.274;26.924;2023-12-20T09:10:32;19.03;;;11.90;;
37855;SDS011;23694;43.274;26.924;2023-12-20T09:13:07;17.70;;;11.60;;
37855;SDS011;23694;43.274;26.924;2023-12-20T09:15:33;24.00;;;12.17;;
37855;SDS011;23694;43.274;26.924;2023-12-20T09:18:48;21.58;;;12.10;;
37855;SDS011;23694;43.274;26.924;2023-12-20T09:21:26;27.00;;;12.23;;
37855;SDS011;23694;43.274;26.924;2023-12-20T09:23:56;29.47;;;12.77;;
37855;SDS011;23694;43.274;26.924;2023-12-20T09:26:28;27.23;;;13.23;;
37855;SDS011;23694;43.274;26.924;2023-12-20T09:28:56;27.60;;;14.47;;
37855;SDS011;23694;43.274;26.924;2023-12-20T09:31:47;25.92;;;13.38;;
37855;SDS011;23694;43.274;26.924;2023-12-20T09:34:24;26.17;;;13.63;;
37855;SDS011;23694;43.274;26.924;2023-12-20T09:36:52;28.47;;;15.53;;
37855;SDS011;23694;43.274;26.924;2023-12-20T09:39:27;24.97;;;13.27;;
37855;SDS011;23694;43.274;26.924;2023-12-20T09:42:02;26.33;;;13.77;;
37855;SDS011;23694;43.274;26.924;2023-12-20T09:44:52;36.10;;;13.70;;
37855;SDS011;23694;43.274;26.924;2023-12-20T09:47:45;32.17;;;15.03;;
37855;SDS011;23694;43.274;26.924;2023-12-20T09:50:20;33.50;;;14.33;;
37855;SDS011;23694;43.274;26.924;2023-12-20T09:52:52;28.97;;;14.17;;
37855;SDS011;23694;43.274;26.924;2023-12-20T09:55:30;32.93;;;15.70;;
37855;SDS011;23694;43.274;26.924;2023-12-20T09:58:03;31.53;;;15.83;;
37855;SDS011;23694;43.274;26.924;2023-12-20T10:00:41;34.43;;;14.67;;
37855;SDS011;23694;43.274;26.924;2023-12-20T10:03:07;33.07;;;14.83;;
37855;SDS011;23694;43.274;26.924;2023-12-20T10:05:56;30.07;;;15.77;;
37855;SDS011;23694;43.274;26.924;2023-12-20T10:08:26;27.63;;;12.80;;
37855;SDS011;23694;43.274;26.924;2023-12-20T10:10:58;33.60;;;15.60;;
37855;SDS011;23694;43.274;26.924;2023-12-20T10:13:28;26.27;;;14.90;;
37855;SDS011;23694;43.274;26.924;2023-12-20T10:16:00;21.43;;;11.77;;
37855;SDS011;23694;43.274;26.924;2023-12-20T10:18:35;23.97;;;12.07;;
37855;SDS011;23694;43.274;26.924;2023-12-20T10:21:08;24.43;;;13.60;;
37855;SDS011;23694;43.274;26.924;2023-12-20T10:24:06;20.10;;;10.90;;
37855;SDS011;23694;43.274;26.924;2023-12-20T10:26:45;30.37;;;12.07;;
37855;SDS011;23694;43.274;26.924;2023-12-20T10:29:50;18.60;;;8.00;;
37855;SDS011;23694;43.274;26.924;2023-12-20T10:32:55;20.50;;;8.60;;
37855;SDS011;23694;43.274;26.924;2023-12-20T10:35:43;18.43;;;7.90;;
37855;SDS011;23694;43.274;26.924;2023-12-20T10:38:39;15.77;;;7.27;;
37855;SDS011;23694;43.274;26.924;2023-12-20T10:41:13;15.37;;;6.60;;
37855;SDS011;23694;43.274;26.924;2023-12-20T10:43:45;14.80;;;7.50;;
37855;SDS011;23694;43.274;26.924;2023-12-20T10:46:29;16.67;;;6.93;;
37855;SDS011;23694;43.274;26.924;2023-12-20T10:49:20;14.50;;;6.30;;
37855;SDS011;23694;43.274;26.924;2023-12-20T10:52:13;15.27;;;6.03;;
37855;SDS011;23694;43.274;26.924;2023-12-20T10:54:48;15.83;;;6.53;;
37855;SDS011;23694;43.274;26.924;2023-12-20T10:57:29;9.95;;;6.60;;
37855;SDS011;23694;43.274;26.924;2023-12-20T10:59:56;11.23;;;5.87;;
37855;SDS011;23694;43.274;26.924;2023-12-20T11:02:31;23.33;;;6.90;;
37855;SDS011;23694;43.274;26.924;2023-12-20T11:05:06;10.87;;;5.03;;
37855;SDS011;23694;43.274;26.924;2023-12-20T11:08:02;11.65;;;5.40;;
37855;SDS011;23694;43.274;26.924;2023-12-20T11:17:32;10.63;;;5.93;;
37855;SDS011;23694;43.274;26.924;2023-12-20T11:20:06;11.93;;;6.80;;
37855;SDS011;23694;43.274;26.924;2023-12-20T11:22:37;12.23;;;6.30;;
37855;SDS011;23694;43.274;26.924;2023-12-20T11:25:10;11.17;;;5.43;;
37855;SDS011;23694;43.274;26.924;2023-12-20T11:30:54;8.77;;;4.30;;
37855;SDS011;23694;43.274;26.924;2023-12-20T11:33:35;4.83;;;3.40;;
37855;SDS011;23694;43.274;26.924;2023-12-20T11:36:24;6.60;;;3.60;;
37855;SDS011;23694;43.274;26.924;2023-12-20T11:39:03;6.40;;;3.03;;
37855;SDS011;23694;43.274;26.924;2023-12-20T11:44:45;7.33;;;4.40;;
37855;SDS011;23694;43.274;26.924;2023-12-20T11:47:12;9.57;;;4.40;;
37855;SDS011;23694;43.274;26.924;2023-12-20T11:49:49;6.00;;;4.67;;
37855;SDS011;23694;43.274;26.924;2023-12-20T11:52:26;8.83;;;5.07;;
37855;SDS011;23694;43.274;26.924;2023-12-20T11:55:13;6.30;;;4.33;;
37855;SDS011;23694;43.274;26.924;2023-12-20T11:57:53;12.80;;;6.37;;
37855;SDS011;23694;43.274;26.924;2023-12-20T12:00:20;6.40;;;4.20;;
37855;SDS011;23694;43.274;26.924;2023-12-20T12:02:55;9.03;;;4.53;;
37855;SDS011;23694;43.274;26.924;2023-12-20T12:05:26;10.97;;;5.27;;
37855;SDS011;23694;43.274;26.924;2023-12-20T12:07:58;7.87;;;4.87;;
37855;SDS011;23694;43.274;26.924;2023-12-20T12:10:27;10.37;;;3.97;;
37855;SDS011;23694;43.274;26.924;2023-12-20T12:12:59;14.67;;;4.37;;
37855;SDS011;23694;43.274;26.924;2023-12-20T12:15:40;8.80;;;5.20;;
37855;SDS011;23694;43.274;26.924;2023-12-20T12:18:15;10.57;;;5.03;;
37855;SDS011;23694;43.274;26.924;2023-12-20T12:21:01;12.27;;;4.97;;
37855;SDS011;23694;43.274;26.924;2023-12-20T12:23:48;20.37;;;7.00;;
37855;SDS011;23694;43.274;26.924;2023-12-20T12:26:34;16.98;;;6.05;;
37855;SDS011;23694;43.274;26.924;2023-12-20T12:29:09;12.17;;;5.87;;
37855;SDS011;23694;43.274;26.924;2023-12-20T12:31:36;16.20;;;5.40;;
37855;SDS011;23694;43.274;26.924;2023-12-20T12:34:10;16.77;;;5.33;;
37855;SDS011;23694;43.274;26.924;2023-12-20T12:36:56;14.25;;;5.30;;
37855;SDS011;23694;43.274;26.924;2023-12-20T12:39:33;10.27;;;5.40;;
37855;SDS011;23694;43.274;26.924;2023-12-20T12:42:07;13.37;;;5.40;;
37855;SDS011;23694;43.274;26.924;2023-12-20T12:44:49;10.10;;;5.87;;
37855;SDS011;23694;43.274;26.924;2023-12-20T12:47:40;14.93;;;5.80;;
37855;SDS011;23694;43.274;26.924;2023-12-20T12:50:53;11.60;;;4.80;;
37855;SDS011;23694;43.274;26.924;2023-12-20T12:53:30;9.60;;;4.43;;
37855;SDS011;23694;43.274;26.924;2023-12-20T12:56:07;11.37;;;7.50;;
37855;SDS011;23694;43.274;26.924;2023-12-20T12:58:52;11.77;;;4.80;;
37855;SDS011;23694;43.274;26.924;2023-12-20T13:01:20;19.10;;;8.43;;
37855;SDS011;23694;43.274;26.924;2023-12-20T13:03:59;38.87;;;19.30;;
37855;SDS011;23694;43.274;26.924;2023-12-20T13:06:29;29.25;;;15.85;;
37855;SDS011;23694;43.274;26.924;2023-12-20T13:09:01;19.17;;;9.87;;
37855;SDS011;23694;43.274;26.924;2023-12-20T13:11:55;18.03;;;8.63;;
37855;SDS011;23694;43.274;26.924;2023-12-20T13:14:31;26.00;;;14.23;;
37855;SDS011;23694;43.274;26.924;2023-12-20T13:17:01;18.47;;;10.37;;
37855;SDS011;23694;43.274;26.924;2023-12-20T13:19:29;41.27;;;14.17;;
37855;SDS011;23694;43.274;26.924;2023-12-20T13:22:01;25.63;;;11.50;;
37855;SDS011;23694;43.274;26.924;2023-12-20T13:25:08;43.37;;;15.07;;
37855;SDS011;23694;43.274;26.924;2023-12-20T13:27:42;63.08;;;25.98;;
37855;SDS011;23694;43.274;26.924;2023-12-20T13:30:11;54.93;;;24.83;;
37855;SDS011;23694;43.274;26.924;2023-12-20T13:32:47;53.47;;;26.83;;
37855;SDS011;23694;43.274;26.924;2023-12-20T13:35:14;66.23;;;28.87;;
37855;SDS011;23694;43.274;26.924;2023-12-20T13:37:47;67.77;;;32.13;;
37855;SDS011;23694;43.274;26.924;2023-12-20T13:40:26;76.07;;;36.17;;
37855;SDS011;23694;43.274;26.924;2023-12-20T13:43:06;72.53;;;36.30;;
37855;SDS011;23694;43.274;26.924;2023-12-20T13:45:50;73.70;;;34.10;;
37855;SDS011;23694;43.274;26.924;2023-12-20T13:48:19;63.80;;;30.63;;
37855;SDS011;23694;43.274;26.924;2023-12-20T13:50:53;63.77;;;30.23;;
37855;SDS011;23694;43.274;26.924;2023-12-20T13:53:25;58.75;;;28.13;;
37855;SDS011;23694;43.274;26.924;2023-12-20T13:55:54;53.37;;;25.77;;
37855;SDS011;23694;43.274;26.924;2023-12-20T13:58:26;44.40;;;23.17;;
37855;SDS011;23694;43.274;26.924;2023-12-20T14:00:55;59.00;;;30.03;;
37855;SDS011;23694;43.274;26.924;2023-12-20T14:03:22;67.47;;;35.07;;
37855;SDS011;23694;43.274;26.924;2023-12-20T14:05:57;59.97;;;31.63;;
37855;SDS011;23694;43.274;26.924;2023-12-20T14:08:42;52.43;;;31.00;;
37855;SDS011;23694;43.274;26.924;2023-12-20T14:11:41;54.23;;;29.90;;
37855;SDS011;23694;43.274;26.924;2023-12-20T14:14:16;51.40;;;28.30;;
37855;SDS011;23694;43.274;26.924;2023-12-20T14:16:44;60.10;;;29.17;;
37855;SDS011;23694;43.274;26.924;2023-12-20T14:19:20;94.10;;;51.83;;
37855;SDS011;23694;43.274;26.924;2023-12-20T14:21:54;76.88;;;39.13;;
37855;SDS011;23694;43.274;26.924;2023-12-20T14:24:45;58.40;;;29.90;;
37855;SDS011;23694;43.274;26.924;2023-12-20T14:27:23;53.83;;;28.17;;
37855;SDS011;23694;43.274;26.924;2023-12-20T14:30:22;49.63;;;23.97;;
37855;SDS011;23694;43.274;26.924;2023-12-20T14:33:06;51.50;;;27.13;;
37855;SDS011;23694;43.274;26.924;2023-12-20T14:35:41;65.87;;;29.53;;
37855;SDS011;23694;43.274;26.924;2023-12-20T14:38:24;67.60;;;32.50;;
37855;SDS011;23694;43.274;26.924;2023-12-20T14:40:52;76.33;;;38.00;;
37855;SDS011;23694;43.274;26.924;2023-12-20T14:43:24;74.50;;;38.73;;
37855;SDS011;23694;43.274;26.924;2023-12-20T14:45:52;85.80;;;41.75;;
37855;SDS011;23694;43.274;26.924;2023-12-20T14:48:26;95.33;;;53.97;;
37855;SDS011;23694;43.274;26.924;2023-12-20T14:54:48;94.83;;;51.27;;
37855;SDS011;23694;43.274;26.924;2023-12-20T14:57:22;172.00;;;115.53;;
37855;SDS011;23694;43.274;26.924;2023-12-20T14:59:59;99.27;;;53.20;;
37855;SDS011;23694;43.274;26.924;2023-12-20T15:02:31;92.50;;;49.33;;
37855;SDS011;23694;43.274;26.924;2023-12-20T15:05:04;76.60;;;43.10;;
37855;SDS011;23694;43.274;26.924;2023-12-20T15:07:49;78.40;;;42.20;;
37855;SDS011;23694;43.274;26.924;2023-12-20T15:10:20;67.13;;;36.53;;
37855;SDS011;23694;43.274;26.924;2023-12-20T15:12:53;74.80;;;40.17;;
37855;SDS011;23694;43.274;26.924;2023-12-20T15:15:22;67.90;;;39.47;;
37855;SDS011;23694;43.274;26.924;2023-12-20T15:18:11;73.83;;;39.70;;
37855;SDS011;23694;43.274;26.924;2023-12-20T15:20:47;57.07;;;34.17;;
37855;SDS011;23694;43.274;26.924;2023-12-20T15:25:53;91.30;;;51.03;;
37855;SDS011;23694;43.274;26.924;2023-12-20T15:28:29;90.07;;;51.07;;
37855;SDS011;23694;43.274;26.924;2023-12-20T15:31:24;122.23;;;67.00;;
37855;SDS011;23694;43.274;26.924;2023-12-20T15:34:02;88.27;;;52.03;;
37855;SDS011;23694;43.274;26.924;2023-12-20T15:36:43;93.07;;;50.17;;
37855;SDS011;23694;43.274;26.924;2023-12-20T15:39:34;87.53;;;51.43;;
37855;SDS011;23694;43.274;26.924;2023-12-20T15:42:07;91.83;;;48.93;;
37855;SDS011;23694;43.274;26.924;2023-12-20T15:44:34;80.47;;;45.07;;
37855;SDS011;23694;43.274;26.924;2023-12-20T15:47:05;76.83;;;45.63;;
37855;SDS011;23694;43.274;26.924;2023-12-20T15:49:46;81.37;;;47.00;;
37855;SDS011;23694;43.274;26.924;2023-12-20T15:52:18;86.40;;;48.27;;